sensor_id;sensor_type;location;lat;lon;timestamp;P1;durP1;ratioP1;P2;durP2;ratioP2
69502;SDS011;56704;54.242;12.442;2022-12-07T00:01:39;7.82;;;3.10;;
69502;SDS011;56704;54.242;12.442;2022-12-07T00:04:07;6.97;;;2.53;;
69502;SDS011;56704;54.242;12.442;2022-12-07T00:06:36;3.53;;;1.23;;
69502;SDS011;56704;54.242;12.442;2022-12-07T00:09:05;7.63;;;3.10;;
69502;SDS011;56704;54.242;12.442;2022-12-07T00:11:34;8.52;;;2.50;;
69502;SDS011;56704;54.242;12.442;2022-12-07T00:14:01;6.03;;;1.85;;
69502;SDS011;56704;54.242;12.442;2022-12-07T00:16:31;8.48;;;3.10;;
69502;SDS011;56704;54.242;12.442;2022-12-07T00:18:59;3.35;;;1.23;;
69502;SDS011;56704;54.242;12.442;2022-12-07T00:21:26;5.90;;;1.93;;
69502;SDS011;56704;54.242;12.442;2022-12-07T00:23:55;4.40;;;1.25;;
69502;SDS011;56704;54.242;12.442;2022-12-07T00:26:22;7.53;;;2.38;;
69502;SDS011;56704;54.242;12.442;2022-12-07T00:28:53;5.82;;;2.42;;
69502;SDS011;56704;54.242;12.442;2022-12-07T00:31:21;6.07;;;2.20;;
69502;SDS011;56704;54.242;12.442;2022-12-07T00:33:49;6.67;;;2.03;;
69502;SDS011;56704;54.242;12.442;2022-12-07T00:36:17;8.90;;;3.45;;
69502;SDS011;56704;54.242;12.442;2022-12-07T00:38:45;8.02;;;3.10;;
69502;SDS011;56704;54.242;12.442;2022-12-07T00:41:12;6.43;;;2.35;;
69502;SDS011;56704;54.242;12.442;2022-12-07T00:43:41;7.47;;;1.67;;
69502;SDS011;56704;54.242;12.442;2022-12-07T00:46:10;7.53;;;3.03;;
69502;SDS011;56704;54.242;12.442;2022-12-07T00:48:38;7.90;;;2.97;;
69502;SDS011;56704;54.242;12.442;2022-12-07T00:51:05;7.13;;;3.00;;
69502;SDS011;56704;54.242;12.442;2022-12-07T00:53:33;8.68;;;3.58;;
69502;SDS011;56704;54.242;12.442;2022-12-07T00:56:04;7.60;;;2.83;;
69502;SDS011;56704;54.242;12.442;2022-12-07T00:58:31;8.43;;;3.13;;
69502;SDS011;56704;54.242;12.442;2022-12-07T01:00:59;7.43;;;3.05;;
69502;SDS011;56704;54.242;12.442;2022-12-07T01:03:27;6.60;;;2.33;;
69502;SDS011;56704;54.242;12.442;2022-12-07T01:05:54;8.95;;;2.78;;
69502;SDS011;56704;54.242;12.442;2022-12-07T01:08:22;4.63;;;1.70;;
69502;SDS011;56704;54.242;12.442;2022-12-07T01:10:57;7.37;;;1.93;;
69502;SDS011;56704;54.242;12.442;2022-12-07T01:13:24;2.55;;;1.00;;
69502;SDS011;56704;54.242;12.442;2022-12-07T01:15:51;4.63;;;1.13;;
69502;SDS011;56704;54.242;12.442;2022-12-07T01:18:17;11.55;;;4.85;;
69502;SDS011;56704;54.242;12.442;2022-12-07T01:20:45;12.73;;;4.25;;
69502;SDS011;56704;54.242;12.442;2022-12-07T01:23:23;6.13;;;2.27;;
69502;SDS011;56704;54.242;12.442;2022-12-07T01:25:53;8.82;;;2.53;;
69502;SDS011;56704;54.242;12.442;2022-12-07T01:28:21;6.30;;;2.17;;
69502;SDS011;56704;54.242;12.442;2022-12-07T01:30:54;3.35;;;1.10;;
69502;SDS011;56704;54.242;12.442;2022-12-07T01:33:21;9.65;;;3.78;;
69502;SDS011;56704;54.242;12.442;2022-12-07T01:35:49;10.40;;;4.00;;
69502;SDS011;56704;54.242;12.442;2022-12-07T01:38:16;10.48;;;2.90;;
69502;SDS011;56704;54.242;12.442;2022-12-07T01:40:42;9.43;;;3.20;;
69502;SDS011;56704;54.242;12.442;2022-12-07T01:43:11;6.53;;;2.60;;
69502;SDS011;56704;54.242;12.442;2022-12-07T01:45:42;10.73;;;3.03;;
69502;SDS011;56704;54.242;12.442;2022-12-07T01:48:09;12.70;;;4.63;;
69502;SDS011;56704;54.242;12.442;2022-12-07T01:50:39;14.65;;;4.45;;
69502;SDS011;56704;54.242;12.442;2022-12-07T01:53:09;5.20;;;2.38;;
69502;SDS011;56704;54.242;12.442;2022-12-07T01:55:37;10.82;;;3.55;;
69502;SDS011;56704;54.242;12.442;2022-12-07T01:58:06;12.65;;;4.00;;
69502;SDS011;56704;54.242;12.442;2022-12-07T02:00:34;9.60;;;3.13;;
69502;SDS011;56704;54.242;12.442;2022-12-07T02:03:02;10.38;;;3.83;;
69502;SDS011;56704;54.242;12.442;2022-12-07T02:05:32;14.93;;;4.65;;
69502;SDS011;56704;54.242;12.442;2022-12-07T02:08:00;12.63;;;3.63;;
69502;SDS011;56704;54.242;12.442;2022-12-07T02:10:30;11.50;;;3.75;;
69502;SDS011;56704;54.242;12.442;2022-12-07T02:12:58;10.17;;;3.10;;
69502;SDS011;56704;54.242;12.442;2022-12-07T02:15:29;7.70;;;1.48;;
69502;SDS011;56704;54.242;12.442;2022-12-07T02:18:07;4.72;;;1.30;;
69502;SDS011;56704;54.242;12.442;2022-12-07T02:20:37;7.22;;;2.17;;
69502;SDS011;56704;54.242;12.442;2022-12-07T02:26:23;19.27;;;7.47;;
69502;SDS011;56704;54.242;12.442;2022-12-07T02:29:13;14.40;;;3.83;;
69502;SDS011;56704;54.242;12.442;2022-12-07T02:31:46;13.13;;;4.18;;
69502;SDS011;56704;54.242;12.442;2022-12-07T02:34:26;18.55;;;5.78;;
69502;SDS011;56704;54.242;12.442;2022-12-07T02:37:01;12.18;;;3.78;;
69502;SDS011;56704;54.242;12.442;2022-12-07T02:39:37;3.80;;;1.80;;
69502;SDS011;56704;54.242;12.442;2022-12-07T02:42:15;3.53;;;1.13;;
69502;SDS011;56704;54.242;12.442;2022-12-07T02:44:48;12.93;;;4.22;;
69502;SDS011;56704;54.242;12.442;2022-12-07T02:47:16;9.68;;;3.30;;
69502;SDS011;56704;54.242;12.442;2022-12-07T02:49:46;11.23;;;4.13;;
69502;SDS011;56704;54.242;12.442;2022-12-07T02:52:13;15.97;;;5.40;;
69502;SDS011;56704;54.242;12.442;2022-12-07T02:54:40;4.68;;;1.33;;
69502;SDS011;56704;54.242;12.442;2022-12-07T02:57:20;14.88;;;3.90;;
69502;SDS011;56704;54.242;12.442;2022-12-07T03:00:03;15.00;;;4.60;;
69502;SDS011;56704;54.242;12.442;2022-12-07T03:02:35;9.88;;;2.78;;
69502;SDS011;56704;54.242;12.442;2022-12-07T03:08:05;14.98;;;4.00;;
69502;SDS011;56704;54.242;12.442;2022-12-07T03:10:39;7.07;;;1.98;;
69502;SDS011;56704;54.242;12.442;2022-12-07T03:13:12;5.88;;;1.80;;
69502;SDS011;56704;54.242;12.442;2022-12-07T03:15:49;12.38;;;3.78;;
69502;SDS011;56704;54.242;12.442;2022-12-07T03:18:24;13.43;;;4.27;;
69502;SDS011;56704;54.242;12.442;2022-12-07T03:20:55;12.77;;;3.15;;
69502;SDS011;56704;54.242;12.442;2022-12-07T03:23:27;6.65;;;2.13;;
69502;SDS011;56704;54.242;12.442;2022-12-07T03:25:56;14.45;;;3.50;;
69502;SDS011;56704;54.242;12.442;2022-12-07T03:28:27;15.45;;;3.92;;
69502;SDS011;56704;54.242;12.442;2022-12-07T03:30:59;15.00;;;3.10;;
69502;SDS011;56704;54.242;12.442;2022-12-07T03:33:31;14.07;;;3.60;;
69502;SDS011;56704;54.242;12.442;2022-12-07T03:36:04;16.58;;;4.47;;
69502;SDS011;56704;54.242;12.442;2022-12-07T03:38:32;16.35;;;4.60;;
69502;SDS011;56704;54.242;12.442;2022-12-07T03:41:04;12.57;;;4.07;;
69502;SDS011;56704;54.242;12.442;2022-12-07T03:43:35;11.07;;;4.00;;
69502;SDS011;56704;54.242;12.442;2022-12-07T03:46:06;13.55;;;3.97;;
69502;SDS011;56704;54.242;12.442;2022-12-07T03:48:43;13.70;;;4.03;;
69502;SDS011;56704;54.242;12.442;2022-12-07T03:51:18;15.23;;;4.03;;
69502;SDS011;56704;54.242;12.442;2022-12-07T03:53:50;12.48;;;3.08;;
69502;SDS011;56704;54.242;12.442;2022-12-07T03:56:21;12.37;;;3.00;;
69502;SDS011;56704;54.242;12.442;2022-12-07T03:58:48;16.58;;;4.55;;
69502;SDS011;56704;54.242;12.442;2022-12-07T04:01:17;12.00;;;3.72;;
69502;SDS011;56704;54.242;12.442;2022-12-07T04:03:44;12.07;;;2.78;;
69502;SDS011;56704;54.242;12.442;2022-12-07T04:06:11;12.77;;;3.70;;
69502;SDS011;56704;54.242;12.442;2022-12-07T04:08:37;16.73;;;4.87;;
69502;SDS011;56704;54.242;12.442;2022-12-07T04:11:04;13.90;;;3.65;;
69502;SDS011;56704;54.242;12.442;2022-12-07T04:13:31;14.20;;;4.68;;
69502;SDS011;56704;54.242;12.442;2022-12-07T04:16:19;13.95;;;3.08;;
69502;SDS011;56704;54.242;12.442;2022-12-07T04:18:46;9.95;;;3.45;;
69502;SDS011;56704;54.242;12.442;2022-12-07T04:21:12;12.27;;;3.53;;
69502;SDS011;56704;54.242;12.442;2022-12-07T04:23:39;8.90;;;2.38;;
69502;SDS011;56704;54.242;12.442;2022-12-07T04:26:06;11.93;;;3.25;;
69502;SDS011;56704;54.242;12.442;2022-12-07T04:28:32;12.25;;;3.88;;
69502;SDS011;56704;54.242;12.442;2022-12-07T04:30:59;7.65;;;2.03;;
69502;SDS011;56704;54.242;12.442;2022-12-07T04:33:27;6.77;;;1.90;;
69502;SDS011;56704;54.242;12.442;2022-12-07T04:35:54;8.32;;;2.45;;
69502;SDS011;56704;54.242;12.442;2022-12-07T04:38:20;10.25;;;2.35;;
69502;SDS011;56704;54.242;12.442;2022-12-07T04:40:47;3.83;;;0.85;;
69502;SDS011;56704;54.242;12.442;2022-12-07T04:43:13;11.80;;;3.15;;
69502;SDS011;56704;54.242;12.442;2022-12-07T04:45:40;6.10;;;1.70;;
69502;SDS011;56704;54.242;12.442;2022-12-07T04:48:12;5.57;;;1.38;;
69502;SDS011;56704;54.242;12.442;2022-12-07T04:50:40;12.35;;;4.07;;
69502;SDS011;56704;54.242;12.442;2022-12-07T04:53:06;6.90;;;2.13;;
69502;SDS011;56704;54.242;12.442;2022-12-07T04:55:33;12.48;;;3.25;;
69502;SDS011;56704;54.242;12.442;2022-12-07T04:58:00;12.13;;;3.27;;
69502;SDS011;56704;54.242;12.442;2022-12-07T05:00:26;5.68;;;1.48;;
69502;SDS011;56704;54.242;12.442;2022-12-07T05:02:53;6.80;;;2.75;;
69502;SDS011;56704;54.242;12.442;2022-12-07T05:05:19;6.97;;;1.95;;
69502;SDS011;56704;54.242;12.442;2022-12-07T05:07:47;7.70;;;2.67;;
69502;SDS011;56704;54.242;12.442;2022-12-07T05:10:14;5.60;;;1.63;;
69502;SDS011;56704;54.242;12.442;2022-12-07T05:12:40;6.97;;;2.63;;
69502;SDS011;56704;54.242;12.442;2022-12-07T05:15:07;9.32;;;2.63;;
69502;SDS011;56704;54.242;12.442;2022-12-07T05:17:34;8.95;;;2.65;;
69502;SDS011;56704;54.242;12.442;2022-12-07T05:20:01;20.90;;;5.32;;
69502;SDS011;56704;54.242;12.442;2022-12-07T05:22:28;11.93;;;3.53;;
69502;SDS011;56704;54.242;12.442;2022-12-07T05:24:56;10.43;;;2.83;;
69502;SDS011;56704;54.242;12.442;2022-12-07T05:27:22;8.55;;;2.63;;
69502;SDS011;56704;54.242;12.442;2022-12-07T05:29:49;13.32;;;3.80;;
69502;SDS011;56704;54.242;12.442;2022-12-07T05:32:16;19.35;;;5.13;;
69502;SDS011;56704;54.242;12.442;2022-12-07T05:34:43;11.17;;;1.80;;
69502;SDS011;56704;54.242;12.442;2022-12-07T05:37:10;5.20;;;1.75;;
69502;SDS011;56704;54.242;12.442;2022-12-07T05:39:37;7.00;;;2.25;;
69502;SDS011;56704;54.242;12.442;2022-12-07T05:42:07;8.68;;;1.98;;
69502;SDS011;56704;54.242;12.442;2022-12-07T05:44:42;23.17;;;5.80;;
69502;SDS011;56704;54.242;12.442;2022-12-07T05:47:10;7.63;;;2.27;;
69502;SDS011;56704;54.242;12.442;2022-12-07T05:49:38;5.60;;;1.55;;
69502;SDS011;56704;54.242;12.442;2022-12-07T05:52:04;8.48;;;2.58;;
69502;SDS011;56704;54.242;12.442;2022-12-07T05:54:31;9.23;;;1.92;;
69502;SDS011;56704;54.242;12.442;2022-12-07T05:56:58;7.72;;;2.50;;
69502;SDS011;56704;54.242;12.442;2022-12-07T05:59:26;12.67;;;3.80;;
69502;SDS011;56704;54.242;12.442;2022-12-07T06:01:53;5.80;;;1.67;;
69502;SDS011;56704;54.242;12.442;2022-12-07T06:04:21;7.15;;;2.20;;
69502;SDS011;56704;54.242;12.442;2022-12-07T06:06:48;10.52;;;2.78;;
69502;SDS011;56704;54.242;12.442;2022-12-07T06:09:15;8.00;;;2.60;;
69502;SDS011;56704;54.242;12.442;2022-12-07T06:11:43;10.43;;;2.60;;
69502;SDS011;56704;54.242;12.442;2022-12-07T06:14:29;25.38;;;6.03;;
69502;SDS011;56704;54.242;12.442;2022-12-07T06:16:56;21.08;;;5.65;;
69502;SDS011;56704;54.242;12.442;2022-12-07T06:19:22;9.10;;;2.80;;
69502;SDS011;56704;54.242;12.442;2022-12-07T06:21:49;23.40;;;6.35;;
69502;SDS011;56704;54.242;12.442;2022-12-07T06:24:16;27.60;;;7.50;;
69502;SDS011;56704;54.242;12.442;2022-12-07T06:26:43;27.00;;;6.72;;
69502;SDS011;56704;54.242;12.442;2022-12-07T06:29:10;19.70;;;5.43;;
69502;SDS011;56704;54.242;12.442;2022-12-07T06:31:38;29.45;;;7.28;;
69502;SDS011;56704;54.242;12.442;2022-12-07T06:34:06;14.45;;;3.67;;
69502;SDS011;56704;54.242;12.442;2022-12-07T06:36:35;6.80;;;1.87;;
69502;SDS011;56704;54.242;12.442;2022-12-07T06:39:02;19.42;;;5.45;;
69502;SDS011;56704;54.242;12.442;2022-12-07T06:41:30;14.93;;;4.07;;
69502;SDS011;56704;54.242;12.442;2022-12-07T06:43:56;17.13;;;4.30;;
69502;SDS011;56704;54.242;12.442;2022-12-07T06:46:23;12.02;;;3.50;;
69502;SDS011;56704;54.242;12.442;2022-12-07T06:48:51;9.03;;;2.87;;
69502;SDS011;56704;54.242;12.442;2022-12-07T06:51:18;21.08;;;5.18;;
69502;SDS011;56704;54.242;12.442;2022-12-07T06:53:45;26.70;;;7.80;;
69502;SDS011;56704;54.242;12.442;2022-12-07T06:56:11;6.07;;;2.30;;
69502;SDS011;56704;54.242;12.442;2022-12-07T06:58:38;11.70;;;4.45;;
69502;SDS011;56704;54.242;12.442;2022-12-07T07:01:08;11.90;;;4.47;;
69502;SDS011;56704;54.242;12.442;2022-12-07T07:03:36;14.80;;;4.75;;
69502;SDS011;56704;54.242;12.442;2022-12-07T07:06:04;7.45;;;2.28;;
69502;SDS011;56704;54.242;12.442;2022-12-07T07:08:32;19.67;;;4.40;;
69502;SDS011;56704;54.242;12.442;2022-12-07T07:10:59;12.68;;;3.80;;
69502;SDS011;56704;54.242;12.442;2022-12-07T07:13:26;24.27;;;4.63;;
69502;SDS011;56704;54.242;12.442;2022-12-07T07:15:53;8.27;;;2.40;;
69502;SDS011;56704;54.242;12.442;2022-12-07T07:18:19;10.23;;;3.63;;
69502;SDS011;56704;54.242;12.442;2022-12-07T07:20:46;18.20;;;4.53;;
69502;SDS011;56704;54.242;12.442;2022-12-07T07:23:14;15.40;;;3.95;;
69502;SDS011;56704;54.242;12.442;2022-12-07T07:25:41;3.83;;;0.90;;
69502;SDS011;56704;54.242;12.442;2022-12-07T07:28:07;9.43;;;2.83;;
69502;SDS011;56704;54.242;12.442;2022-12-07T07:30:34;7.63;;;2.38;;
69502;SDS011;56704;54.242;12.442;2022-12-07T07:33:01;11.80;;;4.10;;
69502;SDS011;56704;54.242;12.442;2022-12-07T07:35:29;15.00;;;4.35;;
69502;SDS011;56704;54.242;12.442;2022-12-07T07:37:57;10.67;;;3.80;;
69502;SDS011;56704;54.242;12.442;2022-12-07T07:40:25;17.02;;;3.47;;
69502;SDS011;56704;54.242;12.442;2022-12-07T07:42:53;18.23;;;5.18;;
69502;SDS011;56704;54.242;12.442;2022-12-07T07:45:21;12.68;;;3.70;;
69502;SDS011;56704;54.242;12.442;2022-12-07T07:47:48;18.15;;;5.15;;
69502;SDS011;56704;54.242;12.442;2022-12-07T07:50:15;9.87;;;4.33;;
69502;SDS011;56704;54.242;12.442;2022-12-07T07:52:43;8.45;;;2.22;;
69502;SDS011;56704;54.242;12.442;2022-12-07T07:55:10;15.20;;;4.53;;
69502;SDS011;56704;54.242;12.442;2022-12-07T07:57:38;15.25;;;3.78;;
69502;SDS011;56704;54.242;12.442;2022-12-07T08:00:07;15.80;;;5.22;;
69502;SDS011;56704;54.242;12.442;2022-12-07T08:02:36;13.53;;;3.73;;
69502;SDS011;56704;54.242;12.442;2022-12-07T08:05:03;14.93;;;4.88;;
69502;SDS011;56704;54.242;12.442;2022-12-07T08:07:30;13.50;;;3.92;;
69502;SDS011;56704;54.242;12.442;2022-12-07T08:09:56;6.80;;;2.35;;
69502;SDS011;56704;54.242;12.442;2022-12-07T08:12:23;10.65;;;3.13;;
69502;SDS011;56704;54.242;12.442;2022-12-07T08:14:51;3.37;;;1.20;;
69502;SDS011;56704;54.242;12.442;2022-12-07T08:17:18;9.63;;;3.00;;
69502;SDS011;56704;54.242;12.442;2022-12-07T08:19:44;20.35;;;7.10;;
69502;SDS011;56704;54.242;12.442;2022-12-07T08:22:11;8.70;;;2.75;;
69502;SDS011;56704;54.242;12.442;2022-12-07T08:24:37;14.27;;;4.50;;
69502;SDS011;56704;54.242;12.442;2022-12-07T08:27:04;13.50;;;4.17;;
69502;SDS011;56704;54.242;12.442;2022-12-07T08:29:31;15.20;;;4.20;;
69502;SDS011;56704;54.242;12.442;2022-12-07T08:31:59;12.98;;;4.50;;
69502;SDS011;56704;54.242;12.442;2022-12-07T08:34:26;9.98;;;2.58;;
69502;SDS011;56704;54.242;12.442;2022-12-07T08:36:53;9.50;;;3.00;;
69502;SDS011;56704;54.242;12.442;2022-12-07T08:39:19;9.37;;;2.97;;
69502;SDS011;56704;54.242;12.442;2022-12-07T08:41:46;10.13;;;3.50;;
69502;SDS011;56704;54.242;12.442;2022-12-07T08:44:12;8.13;;;2.10;;
69502;SDS011;56704;54.242;12.442;2022-12-07T08:46:39;6.57;;;2.17;;
69502;SDS011;56704;54.242;12.442;2022-12-07T08:49:14;8.00;;;2.65;;
69502;SDS011;56704;54.242;12.442;2022-12-07T08:51:44;7.40;;;2.57;;
69502;SDS011;56704;54.242;12.442;2022-12-07T08:54:13;8.55;;;2.70;;
69502;SDS011;56704;54.242;12.442;2022-12-07T08:56:42;7.18;;;1.92;;
69502;SDS011;56704;54.242;12.442;2022-12-07T08:59:10;4.63;;;1.30;;
69502;SDS011;56704;54.242;12.442;2022-12-07T09:01:40;7.05;;;2.70;;
69502;SDS011;56704;54.242;12.442;2022-12-07T09:04:06;5.77;;;1.97;;
69502;SDS011;56704;54.242;12.442;2022-12-07T09:06:34;6.88;;;2.47;;
69502;SDS011;56704;54.242;12.442;2022-12-07T09:09:01;8.27;;;2.42;;
69502;SDS011;56704;54.242;12.442;2022-12-07T09:11:29;3.90;;;1.08;;
69502;SDS011;56704;54.242;12.442;2022-12-07T09:13:56;4.18;;;1.25;;
69502;SDS011;56704;54.242;12.442;2022-12-07T09:16:22;2.77;;;0.97;;
69502;SDS011;56704;54.242;12.442;2022-12-07T09:18:49;7.22;;;1.85;;
69502;SDS011;56704;54.242;12.442;2022-12-07T09:21:15;7.15;;;2.45;;
69502;SDS011;56704;54.242;12.442;2022-12-07T09:23:43;5.90;;;1.58;;
69502;SDS011;56704;54.242;12.442;2022-12-07T09:26:10;3.88;;;1.33;;
69502;SDS011;56704;54.242;12.442;2022-12-07T09:28:37;4.13;;;1.20;;
69502;SDS011;56704;54.242;12.442;2022-12-07T09:31:04;4.15;;;1.48;;
69502;SDS011;56704;54.242;12.442;2022-12-07T09:33:31;6.07;;;3.30;;
69502;SDS011;56704;54.242;12.442;2022-12-07T09:35:57;3.53;;;0.85;;
69502;SDS011;56704;54.242;12.442;2022-12-07T09:38:24;2.90;;;0.93;;
69502;SDS011;56704;54.242;12.442;2022-12-07T09:40:53;5.27;;;1.47;;
69502;SDS011;56704;54.242;12.442;2022-12-07T09:43:20;4.35;;;1.80;;
69502;SDS011;56704;54.242;12.442;2022-12-07T09:45:50;2.97;;;0.52;;
69502;SDS011;56704;54.242;12.442;2022-12-07T09:48:18;1.88;;;0.43;;
69502;SDS011;56704;54.242;12.442;2022-12-07T09:50:47;1.15;;;0.13;;
69502;SDS011;56704;54.242;12.442;2022-12-07T09:53:24;4.63;;;0.30;;
69502;SDS011;56704;54.242;12.442;2022-12-07T09:55:54;1.40;;;0.20;;
69502;SDS011;56704;54.242;12.442;2022-12-07T09:58:22;3.70;;;0.68;;
69502;SDS011;56704;54.242;12.442;2022-12-07T10:00:52;1.58;;;0.32;;
69502;SDS011;56704;54.242;12.442;2022-12-07T10:03:21;2.13;;;0.28;;
69502;SDS011;56704;54.242;12.442;2022-12-07T10:05:49;4.70;;;0.70;;
69502;SDS011;56704;54.242;12.442;2022-12-07T10:08:17;2.47;;;0.40;;
69502;SDS011;56704;54.242;12.442;2022-12-07T10:10:44;5.10;;;0.80;;
69502;SDS011;56704;54.242;12.442;2022-12-07T10:13:14;4.72;;;1.20;;
69502;SDS011;56704;54.242;12.442;2022-12-07T10:15:43;4.03;;;0.45;;
69502;SDS011;56704;54.242;12.442;2022-12-07T10:18:29;5.07;;;0.63;;
69502;SDS011;56704;54.242;12.442;2022-12-07T10:21:01;3.67;;;0.88;;
69502;SDS011;56704;54.242;12.442;2022-12-07T10:23:39;4.07;;;0.90;;
69502;SDS011;56704;54.242;12.442;2022-12-07T10:26:20;4.43;;;0.60;;
69502;SDS011;56704;54.242;12.442;2022-12-07T10:28:53;3.75;;;0.63;;
69502;SDS011;56704;54.242;12.442;2022-12-07T10:31:21;4.00;;;0.77;;
69502;SDS011;56704;54.242;12.442;2022-12-07T10:33:50;4.97;;;0.75;;
69502;SDS011;56704;54.242;12.442;2022-12-07T10:36:19;6.05;;;1.35;;
69502;SDS011;56704;54.242;12.442;2022-12-07T10:38:49;3.78;;;0.90;;
69502;SDS011;56704;54.242;12.442;2022-12-07T10:41:18;1.73;;;0.28;;
69502;SDS011;56704;54.242;12.442;2022-12-07T10:43:46;2.63;;;0.60;;
69502;SDS011;56704;54.242;12.442;2022-12-07T10:52:45;2.33;;;0.10;;
69502;SDS011;56704;54.242;12.442;2022-12-07T10:55:25;2.35;;;0.20;;
69502;SDS011;56704;54.242;12.442;2022-12-07T10:58:05;0.90;;;0.10;;
69502;SDS011;56704;54.242;12.442;2022-12-07T11:00:49;0.88;;;0.10;;
69502;SDS011;56704;54.242;12.442;2022-12-07T11:03:32;0.60;;;0.10;;
69502;SDS011;56704;54.242;12.442;2022-12-07T11:06:14;1.73;;;0.10;;
69502;SDS011;56704;54.242;12.442;2022-12-07T11:08:52;1.23;;;0.20;;
69502;SDS011;56704;54.242;12.442;2022-12-07T11:11:27;5.07;;;0.20;;
69502;SDS011;56704;54.242;12.442;2022-12-07T11:14:01;1.20;;;0.10;;
69502;SDS011;56704;54.242;12.442;2022-12-07T11:16:41;1.23;;;0.10;;
69502;SDS011;56704;54.242;12.442;2022-12-07T11:19:31;1.33;;;0.10;;
69502;SDS011;56704;54.242;12.442;2022-12-07T11:22:11;1.20;;;0.13;;
69502;SDS011;56704;54.242;12.442;2022-12-07T11:24:44;1.20;;;0.20;;
69502;SDS011;56704;54.242;12.442;2022-12-07T11:27:21;1.35;;;0.10;;
69502;SDS011;56704;54.242;12.442;2022-12-07T11:29:55;1.70;;;0.55;;
69502;SDS011;56704;54.242;12.442;2022-12-07T11:32:44;1.65;;;0.20;;
69502;SDS011;56704;54.242;12.442;2022-12-07T11:35:19;1.35;;;0.13;;
69502;SDS011;56704;54.242;12.442;2022-12-07T11:37:55;1.70;;;0.03;;
69502;SDS011;56704;54.242;12.442;2022-12-07T11:40:27;1.85;;;0.10;;
69502;SDS011;56704;54.242;12.442;2022-12-07T11:42:59;2.45;;;0.20;;
69502;SDS011;56704;54.242;12.442;2022-12-07T11:45:30;1.83;;;0.10;;
69502;SDS011;56704;54.242;12.442;2022-12-07T11:47:59;1.77;;;0.20;;
69502;SDS011;56704;54.242;12.442;2022-12-07T11:50:32;3.07;;;0.20;;
69502;SDS011;56704;54.242;12.442;2022-12-07T11:53:03;1.90;;;0.03;;
69502;SDS011;56704;54.242;12.442;2022-12-07T11:55:41;1.05;;;0.00;;
69502;SDS011;56704;54.242;12.442;2022-12-07T11:58:15;2.60;;;0.22;;
69502;SDS011;56704;54.242;12.442;2022-12-07T12:00:48;3.03;;;0.20;;
69502;SDS011;56704;54.242;12.442;2022-12-07T12:03:20;1.50;;;0.07;;
69502;SDS011;56704;54.242;12.442;2022-12-07T12:05:55;1.48;;;0.00;;
69502;SDS011;56704;54.242;12.442;2022-12-07T12:08:22;1.73;;;0.10;;
69502;SDS011;56704;54.242;12.442;2022-12-07T12:10:58;0.40;;;0.00;;
69502;SDS011;56704;54.242;12.442;2022-12-07T12:16:38;2.87;;;0.30;;
69502;SDS011;56704;54.242;12.442;2022-12-07T12:19:25;1.67;;;0.10;;
69502;SDS011;56704;54.242;12.442;2022-12-07T12:22:00;3.47;;;0.25;;
69502;SDS011;56704;54.242;12.442;2022-12-07T12:24:36;2.72;;;0.10;;
69502;SDS011;56704;54.242;12.442;2022-12-07T12:27:06;6.20;;;0.63;;
69502;SDS011;56704;54.242;12.442;2022-12-07T12:29:36;1.67;;;0.10;;
69502;SDS011;56704;54.242;12.442;2022-12-07T12:32:06;3.33;;;0.60;;
69502;SDS011;56704;54.242;12.442;2022-12-07T12:34:39;4.90;;;0.38;;
69502;SDS011;56704;54.242;12.442;2022-12-07T12:52:01;2.80;;;0.60;;
69502;SDS011;56704;54.242;12.442;2022-12-07T12:55:12;1.73;;;0.25;;
69502;SDS011;56704;54.242;12.442;2022-12-07T12:57:43;3.33;;;0.40;;
69502;SDS011;56704;54.242;12.442;2022-12-07T13:00:17;6.90;;;0.47;;
69502;SDS011;56704;54.242;12.442;2022-12-07T13:02:47;7.95;;;0.52;;
69502;SDS011;56704;54.242;12.442;2022-12-07T13:05:18;2.53;;;0.30;;
69502;SDS011;56704;54.242;12.442;2022-12-07T13:07:59;1.92;;;0.20;;
69502;SDS011;56704;54.242;12.442;2022-12-07T13:10:33;1.10;;;0.10;;
69502;SDS011;56704;54.242;12.442;2022-12-07T13:13:30;4.00;;;0.77;;
69502;SDS011;56704;54.242;12.442;2022-12-07T13:19:27;2.92;;;0.30;;
69502;SDS011;56704;54.242;12.442;2022-12-07T13:25:20;0.83;;;0.10;;
69502;SDS011;56704;54.242;12.442;2022-12-07T13:27:59;1.00;;;0.10;;
69502;SDS011;56704;54.242;12.442;2022-12-07T13:30:28;1.60;;;0.13;;
69502;SDS011;56704;54.242;12.442;2022-12-07T13:32:57;1.60;;;0.10;;
69502;SDS011;56704;54.242;12.442;2022-12-07T13:35:29;0.68;;;0.10;;
69502;SDS011;56704;54.242;12.442;2022-12-07T13:37:56;1.30;;;0.10;;
69502;SDS011;56704;54.242;12.442;2022-12-07T13:40:23;3.55;;;0.20;;
69502;SDS011;56704;54.242;12.442;2022-12-07T13:42:56;3.30;;;0.30;;
69502;SDS011;56704;54.242;12.442;2022-12-07T13:45:24;1.58;;;0.25;;
69502;SDS011;56704;54.242;12.442;2022-12-07T13:48:15;1.33;;;0.20;;
69502;SDS011;56704;54.242;12.442;2022-12-07T13:50:52;0.90;;;0.00;;
69502;SDS011;56704;54.242;12.442;2022-12-07T13:53:20;1.42;;;0.28;;
69502;SDS011;56704;54.242;12.442;2022-12-07T13:55:47;2.30;;;0.17;;
69502;SDS011;56704;54.242;12.442;2022-12-07T13:58:14;3.78;;;0.20;;
69502;SDS011;56704;54.242;12.442;2022-12-07T14:00:41;1.58;;;0.15;;
69502;SDS011;56704;54.242;12.442;2022-12-07T14:03:29;1.13;;;0.20;;
69502;SDS011;56704;54.242;12.442;2022-12-07T14:06:14;1.45;;;0.20;;
69502;SDS011;56704;54.242;12.442;2022-12-07T14:08:44;3.33;;;0.30;;
69502;SDS011;56704;54.242;12.442;2022-12-07T14:11:13;3.65;;;0.80;;
69502;SDS011;56704;54.242;12.442;2022-12-07T14:13:51;3.22;;;0.20;;
69502;SDS011;56704;54.242;12.442;2022-12-07T14:16:25;1.90;;;0.20;;
69502;SDS011;56704;54.242;12.442;2022-12-07T14:18:55;1.48;;;0.10;;
69502;SDS011;56704;54.242;12.442;2022-12-07T14:21:24;1.35;;;0.10;;
69502;SDS011;56704;54.242;12.442;2022-12-07T14:24:08;1.45;;;0.17;;
69502;SDS011;56704;54.242;12.442;2022-12-07T14:26:37;1.33;;;0.10;;
69502;SDS011;56704;54.242;12.442;2022-12-07T14:29:21;2.50;;;0.20;;
69502;SDS011;56704;54.242;12.442;2022-12-07T14:31:55;2.55;;;0.30;;
69502;SDS011;56704;54.242;12.442;2022-12-07T14:34:25;2.72;;;0.25;;
69502;SDS011;56704;54.242;12.442;2022-12-07T14:36:52;1.25;;;0.10;;
69502;SDS011;56704;54.242;12.442;2022-12-07T14:39:18;3.10;;;0.35;;
69502;SDS011;56704;54.242;12.442;2022-12-07T14:41:45;2.27;;;0.40;;
69502;SDS011;56704;54.242;12.442;2022-12-07T14:44:18;2.08;;;0.22;;
69502;SDS011;56704;54.242;12.442;2022-12-07T14:46:46;1.95;;;0.40;;
69502;SDS011;56704;54.242;12.442;2022-12-07T14:49:14;1.85;;;0.20;;
69502;SDS011;56704;54.242;12.442;2022-12-07T14:51:42;2.75;;;0.50;;
69502;SDS011;56704;54.242;12.442;2022-12-07T14:54:12;1.73;;;0.27;;
69502;SDS011;56704;54.242;12.442;2022-12-07T14:56:42;1.23;;;0.20;;
69502;SDS011;56704;54.242;12.442;2022-12-07T14:59:09;1.85;;;0.20;;
69502;SDS011;56704;54.242;12.442;2022-12-07T15:01:37;1.55;;;0.10;;
69502;SDS011;56704;54.242;12.442;2022-12-07T15:04:04;2.45;;;0.47;;
69502;SDS011;56704;54.242;12.442;2022-12-07T15:06:31;1.73;;;0.20;;
69502;SDS011;56704;54.242;12.442;2022-12-07T15:08:59;1.57;;;0.17;;
69502;SDS011;56704;54.242;12.442;2022-12-07T15:11:27;4.40;;;0.65;;
69502;SDS011;56704;54.242;12.442;2022-12-07T15:13:53;1.35;;;0.13;;
69502;SDS011;56704;54.242;12.442;2022-12-07T15:16:39;2.25;;;0.30;;
69502;SDS011;56704;54.242;12.442;2022-12-07T15:19:09;2.35;;;0.30;;
69502;SDS011;56704;54.242;12.442;2022-12-07T15:21:38;2.37;;;0.20;;
69502;SDS011;56704;54.242;12.442;2022-12-07T15:24:07;2.80;;;0.20;;
69502;SDS011;56704;54.242;12.442;2022-12-07T15:26:35;1.88;;;0.15;;